Terminal Aerodrome Forecast
Issued by NWS Louisville, KY

Home | Current Version | Previous Version | Text Only | Print | Product List | Glossary On
Versions: 1 2 3 4 5 6 7 8 9 10 11 12 13 14 15 16
000
FTUS43 KLMK 261100
TAFLEX
TAF
KLEX 261120Z 2612/2712 04004KT P6SM BKN250
     FM261400 VRB04KT P6SM SKC
     FM261800 24004KT P6SM BKN250
     FM270000 35003KT P6SM VCSH BKN040
     FM271100 30004KT P6SM BKN250=

USA.gov is the U.S. government's official web portal to all federal, state and local government web resources and services.